עמוד ראשי
METAR-TAF:

METAR-TAF

שדות תעופה :

Bushehr, איראן

קו רוחב: 28-59N, קו אורך: 050-50E, גובה: 19מטר

תצפית מזג אוויר נוכחית

הדו"ח נערך לפני 24דקות, בשעה 19:00 UTC
רוח 4קשר מכיוון צפון/צפון-מערב
טמפרטורת 33 צלסיוס
לחות 39%
לחץ 999 hPa
ראות 10 קילומטר או יותר
ללא עננים שבסיסם נמוך מ 5000 רגל או קומולונימבוס

METAR: OIBB 131900Z 33004KT CAVOK 33/17 Q0998 A2950

זמן: 23:54 (19:24 UTC)

תחזית

הדו"ח נערך לפני 2 שעות ו 24דקות, בשעה 17:00 UTC
תחזית בתוקף מ 13 ב 18 UTC עד 14 ב 03 UTC
רוח 10קשר מכיוון מערב/צפון-מערב
ראות: 7000מטר

TAF: OIBB 131700Z 1318/1403 30010KT 7000 NSC

תצפיות ותחזיות מזג אוויר לגבי יותר מ- 4,000 שדות תעופה ברחבי העולם. דוחות METAR ו- TAF.

התחנות הזמינות מסומנות בנקודות צהובות ואדומות על גבי המפה.

העבר את העכבר לנקודה הצבעונית על מנת לראות את שם התחנה.

לאחר מכן, לחץ כדי לראות את תוכן ואת תחזיות מזג האוויר.

כדי לשנות את המפה: לחץ על הכפתורים הירוקים עם הפלוס השחור כדי להתקרב; על הכפתור הירוק עם המקף כדי להתרחק; או בחיצים הירוקים למפות סמוכות.


METAR-TAF: